Time;durP1;ratioP1;P1;durP2;ratioP2;P2;SDS_P1;SDS_P2;PMS_P1;PMS_P2;Temp;Humidity;BMP_temperature;BMP_pressure;BME280_temperature;BME280_humidity;BME280_pressure;Samples;Min_cycle;Max_cycle;Signal;HPM_P1;HPM_P2
2021/06/06 00:01:26;;;;;;;9.18;2.70;;;;;;;23.41;49.91;100661.84;5112081;27;20039;-71
2021/06/06 00:03:58;;;;;;;9.00;3.13;;;;;;;23.36;50.19;100669.44;5111469;28;20058;-69
2021/06/06 00:06:31;;;;;;;8.65;2.83;;;;;;;23.39;50.07;100663.84;5110374;28;20076;-69
2021/06/06 00:09:03;;;;;;;12.48;3.30;;;;;;;23.44;49.87;100661.56;5112075;28;20031;-70
2021/06/06 00:11:33;;;;;;;12.05;3.25;;;;;;;23.32;50.26;100664.56;5112052;28;20067;-70
2021/06/06 00:14:03;;;;;;;9.70;3.28;;;;;;;23.36;49.94;100666.78;5109790;28;20039;-71
2021/06/06 00:16:38;;;;;;;15.50;4.35;;;;;;;23.26;50.58;100664.19;5110613;28;20130;-70
2021/06/06 00:19:07;;;;;;;11.38;3.30;;;;;;;23.24;50.58;100658.19;5110962;28;20046;-71
2021/06/06 00:21:36;;;;;;;13.93;3.40;;;;;;;23.19;50.82;100659.63;5107593;28;20028;-70
2021/06/06 00:24:05;;;;;;;10.30;3.33;;;;;;;23.23;50.33;100661.00;5112482;28;20125;-70
2021/06/06 00:26:33;;;;;;;10.70;3.30;;;;;;;23.22;50.87;100656.63;5110318;28;20043;-71
2021/06/06 00:29:00;;;;;;;19.50;4.25;;;;;;;23.24;50.21;100644.03;5111279;28;20118;-71
2021/06/06 00:31:28;;;;;;;9.80;3.13;;;;;;;23.24;50.51;100644.03;5107133;28;20498;-70
2021/06/06 00:33:55;;;;;;;10.00;3.28;;;;;;;23.29;50.19;100641.78;5114896;28;20044;-69
2021/06/06 00:36:23;;;;;;;10.43;3.65;;;;;;;23.30;50.48;100640.78;5110523;27;20135;-70
2021/06/06 00:38:51;;;;;;;7.32;3.50;;;;;;;23.21;50.59;100649.66;5113438;27;20035;-70
2021/06/06 00:41:20;;;;;;;15.00;3.92;;;;;;;23.06;51.38;100659.09;5111204;27;20048;-70
2021/06/06 00:43:50;;;;;;;10.20;3.25;;;;;;;23.07;51.28;100658.16;5111816;27;20031;-70
2021/06/06 00:46:19;;;;;;;15.18;3.15;;;;;;;22.99;51.78;100654.38;5111481;27;20036;-70
2021/06/06 00:48:48;;;;;;;13.73;3.72;;;;;;;22.99;51.86;100653.53;5113732;27;20047;-71
2021/06/06 00:51:20;;;;;;;14.68;3.28;;;;;;;23.05;51.76;100644.13;5110131;27;20039;-70
2021/06/06 00:53:51;;;;;;;10.43;4.65;;;;;;;23.06;51.75;100643.16;5118275;27;20059;-70
2021/06/06 00:56:24;;;;;;;14.98;3.70;;;;;;;22.98;51.68;100642.06;5119952;27;20062;-71
2021/06/06 00:58:56;;;;;;;10.85;3.17;;;;;;;23.03;51.65;100643.47;5132556;27;20042;-70
2021/06/06 01:01:26;;;;;;;16.75;4.00;;;;;;;23.01;51.79;100651.59;5126696;27;20408;-71
2021/06/06 01:03:56;;;;;;;8.43;3.17;;;;;;;22.76;52.47;100647.75;5113394;27;20048;-71
2021/06/06 01:06:35;;;;;;;8.70;3.50;;;;;;;22.73;52.70;100648.84;5115367;27;20081;-71
2021/06/06 01:09:06;;;;;;;12.60;4.80;;;;;;;22.78;52.39;100645.75;5113515;27;20518;-70
2021/06/06 01:11:52;;;;;;;14.07;3.38;;;;;;;22.80;52.02;100643.81;5113623;27;20362;-71
2021/06/06 01:14:29;;;;;;;8.13;3.53;;;;;;;22.86;52.07;100640.56;5121270;27;20035;-71
2021/06/06 01:17:08;;;;;;;9.80;3.90;;;;;;;22.86;52.20;100637.91;5126899;27;20035;-71
2021/06/06 01:19:45;;;;;;;16.88;4.32;;;;;;;22.82;52.17;100638.34;5117327;27;20420;-71
2021/06/06 01:22:45;;;;;;;9.80;3.70;;;;;;;22.79;52.31;100635.97;5122580;27;20100;-71
2021/06/06 01:25:31;;;;;;;7.63;3.00;;;;;;;22.81;51.93;100629.53;5116947;27;20043;-70
2021/06/06 01:28:06;;;;;;;;;;;;;;;22.78;52.02;100629.81;5127380;27;20043;-71
2021/06/06 01:30:37;;;;;;;9.25;4.22;;;;;;;22.73;52.39;100635.56;5109774;27;19926;-71
2021/06/06 01:33:11;;;;;;;11.77;4.03;;;;;;;22.77;52.03;100632.63;5113843;27;20061;-70
2021/06/06 01:36:02;;;;;;;7.90;3.35;;;;;;;22.66;52.89;100625.69;5119267;27;20043;-71
2021/06/06 01:38:51;;;;;;;9.40;3.10;;;;;;;22.64;52.68;100620.50;5114196;27;20486;-69
2021/06/06 01:41:23;;;;;;;12.15;3.60;;;;;;;22.63;53.04;100618.81;5115565;27;20130;-67
2021/06/06 01:43:55;;;;;;;18.55;3.97;;;;;;;22.71;52.42;100618.94;5128338;27;20039;-68
2021/06/06 01:46:35;;;;;;;14.68;4.20;;;;;;;22.40;53.72;100628.97;5123286;27;20143;-68
2021/06/06 01:49:08;;;;;;;10.68;4.60;;;;;;;22.52;53.35;100629.63;5119308;27;20448;-68
2021/06/06 01:51:40;;;;;;;13.95;4.55;;;;;;;22.58;53.22;100625.53;5119159;27;20122;-67
2021/06/06 01:54:12;;;;;;;9.43;3.22;;;;;;;22.45;53.89;100628.53;5125167;27;20451;-66
2021/06/06 01:56:42;;;;;;;13.30;3.70;;;;;;;22.44;53.83;100621.56;5114808;28;20490;-68
2021/06/06 01:59:16;;;;;;;14.50;3.50;;;;;;;22.41;53.52;100622.66;5121219;27;20094;-69
2021/06/06 02:01:47;;;;;;;13.18;3.90;;;;;;;22.59;52.94;100621.94;5128230;27;20095;-68
2021/06/06 02:04:15;;;;;;;17.30;4.88;;;;;;;22.58;53.21;100622.88;5121266;27;20043;-71
2021/06/06 02:06:54;;;;;;;14.73;3.42;;;;;;;22.49;53.19;100620.13;5127737;27;20547;-70
2021/06/06 02:09:30;;;;;;;10.55;3.75;;;;;;;22.53;53.20;100618.03;5136260;27;20036;-68
2021/06/06 02:12:24;;;;;;;12.80;4.07;;;;;;;22.58;53.17;100623.72;5114231;27;20048;-71
2021/06/06 02:15:12;;;;;;;12.20;3.65;;;;;;;22.41;53.58;100622.66;5120526;27;20308;-67
2021/06/06 02:17:51;;;;;;;13.00;4.53;;;;;;;22.45;53.51;100629.38;5113053;28;20497;-70
2021/06/06 02:20:30;;;;;;;8.60;3.63;;;;;;;22.49;53.83;100616.66;5113919;27;20139;-70
2021/06/06 02:22:59;;;;;;;11.90;4.30;;;;;;;22.51;53.63;100619.97;5118158;27;20451;-68
2021/06/06 02:25:30;;;;;;;13.25;3.63;;;;;;;22.47;53.81;100638.03;5121059;27;20518;-72
2021/06/06 02:28:26;;;;;;;23.70;5.35;;;;;;;22.50;53.48;100626.28;5113251;27;20046;-69
2021/06/06 02:31:12;;;;;;;14.73;4.65;;;;;;;22.45;53.77;100632.03;5118731;27;20039;-65
2021/06/06 02:33:58;;;;;;;9.70;5.10;;;;;;;22.47;53.82;100629.22;5120628;27;20040;-70
2021/06/06 02:36:32;;;;;;;11.50;4.85;;;;;;;22.52;53.48;100624.31;5119770;27;20417;-68
2021/06/06 02:39:19;;;;;;;16.33;4.85;;;;;;;22.56;53.78;100630.19;5115260;27;20132;-70
2021/06/06 02:42:04;;;;;;;12.88;4.53;;;;;;;22.54;53.72;100622.38;5113186;28;20040;-69
2021/06/06 02:44:42;;;;;;;10.10;3.60;;;;;;;22.53;53.60;100623.34;5114166;27;20447;-71
2021/06/06 02:47:19;;;;;;;13.60;3.90;;;;;;;22.52;53.49;100624.31;5114800;27;20532;-66
2021/06/06 02:49:52;;;;;;;14.75;4.00;;;;;;;22.55;53.69;100626.69;5120427;27;20036;-66
2021/06/06 02:52:38;;;;;;;15.88;3.88;;;;;;;22.52;53.71;100620.81;5112833;27;20044;-67
2021/06/06 02:55:18;;;;;;;12.68;3.55;;;;;;;22.52;53.71;100620.81;5112409;27;20147;-68
2021/06/06 02:57:52;;;;;;;10.57;3.85;;;;;;;22.53;53.80;100614.50;5115293;27;20047;-70
2021/06/06 03:00:43;;;;;;;14.73;4.63;;;;;;;22.40;54.40;100621.00;5118049;27;20050;-72
2021/06/06 03:03:18;;;;;;;18.25;3.90;;;;;;;22.29;55.17;100620.31;5121597;27;20421;-70
2021/06/06 03:05:49;;;;;;;15.10;4.63;;;;;;;22.35;54.84;100612.63;5122466;27;20036;-68
2021/06/06 03:08:19;;;;;;;12.60;4.15;;;;;;;22.35;54.56;100620.59;5114244;27;20039;-67
2021/06/06 03:10:51;;;;;;;14.02;4.57;;;;;;;22.35;54.58;100622.41;5114268;27;20518;-66
2021/06/06 03:13:44;;;;;;;6.95;3.35;;;;;;;22.34;54.75;100626.88;5126474;27;20035;-68
2021/06/06 03:16:15;;;;;;;14.55;4.03;;;;;;;22.34;54.23;100626.88;5125863;27;20070;-68
2021/06/06 03:18:50;;;;;;;6.68;3.88;;;;;;;22.34;54.37;100620.72;5132769;27;20054;-68
2021/06/06 03:21:27;;;;;;;10.30;3.70;;;;;;;22.32;54.53;100620.88;5133325;27;20062;-66
2021/06/06 03:24:06;;;;;;;10.25;2.90;;;;;;;22.33;54.17;100616.41;5137754;27;20067;-67
2021/06/06 03:26:41;;;;;;;11.85;3.80;;;;;;;22.28;54.34;100614.19;5132119;27;20119;-68
2021/06/06 03:29:15;;;;;;;7.72;2.90;;;;;;;22.28;54.39;100606.22;5132461;27;20401;-69
2021/06/06 03:31:51;;;;;;;12.63;4.25;;;;;;;22.29;54.28;100607.06;5133300;27;20035;-68
2021/06/06 03:34:19;;;;;;;6.47;2.70;;;;;;;22.28;53.84;100605.38;5132109;27;20035;-68
2021/06/06 03:36:51;;;;;;;14.82;3.95;;;;;;;22.26;54.19;100607.31;5124520;27;20043;-68
2021/06/06 03:39:47;;;;;;;11.57;2.60;;;;;;;22.25;53.82;100606.50;5132657;27;20039;-68
2021/06/06 03:42:22;;;;;;;5.97;2.40;;;;;;;22.21;54.04;100608.63;5132215;27;20047;-68
2021/06/06 03:44:53;;;;;;;10.93;3.58;;;;;;;22.22;53.73;100610.28;5131639;27;20050;-68
2021/06/06 03:47:23;;;;;;;8.73;2.72;;;;;;;22.19;53.59;100607.91;5133455;27;20039;-68
2021/06/06 03:49:53;;;;;;;8.10;2.40;;;;;;;22.16;54.29;100612.69;5118858;27;20039;-67
2021/06/06 03:52:21;;;;;;;11.10;4.07;;;;;;;22.19;54.36;100620.34;5109778;28;20032;-68
2021/06/06 03:54:48;;;;;;;9.73;3.03;;;;;;;22.20;54.42;100620.19;5111142;27;20484;-68
2021/06/06 03:57:15;;;;;;;10.50;3.20;;;;;;;22.16;54.60;100623.31;5112508;28;20524;-67
2021/06/06 03:59:45;;;;;;;14.73;4.72;;;;;;;22.16;54.54;100623.31;5112718;28;20035;-68
2021/06/06 04:02:13;;;;;;;13.35;3.22;;;;;;;22.23;54.35;100625.22;5115310;28;20073;-68
2021/06/06 04:04:41;;;;;;;10.57;3.13;;;;;;;22.25;54.69;100622.41;5112711;28;20043;-66
2021/06/06 04:07:11;;;;;;;11.18;4.00;;;;;;;22.28;54.51;100627.47;5111202;28;20093;-68
2021/06/06 04:09:39;;;;;;;11.40;4.65;;;;;;;22.30;54.40;100622.84;5110762;27;20032;-69
2021/06/06 04:12:07;;;;;;;8.80;2.83;;;;;;;22.28;54.88;100626.63;5120571;27;20043;-69
2021/06/06 04:14:37;;;;;;;13.80;2.92;;;;;;;22.31;54.68;100619.19;5138018;27;20561;-68
2021/06/06 04:17:04;;;;;;;11.40;4.03;;;;;;;22.31;54.75;100624.50;5116872;27;20088;-66
2021/06/06 04:19:38;;;;;;;;;;;;;;;22.32;55.00;100628.84;5114783;27;20440;-67
2021/06/06 04:22:06;;;;;;;7.63;2.40;;;;;;;22.34;55.05;100632.19;5120250;27;19919;-68
2021/06/06 04:24:33;;;;;;;11.98;3.90;;;;;;;22.33;55.44;100629.69;5121435;27;20043;-67
2021/06/06 04:27:02;;;;;;;17.20;4.60;;;;;;;22.33;55.37;100633.19;5112585;27;20093;-67
2021/06/06 04:29:29;;;;;;;10.43;3.25;;;;;;;22.36;55.09;100635.53;5117196;27;20050;-67
2021/06/06 04:32:04;;;;;;;7.57;3.75;;;;;;;22.34;55.48;100632.19;5114513;27;20096;-67
2021/06/06 04:34:36;;;;;;;8.70;3.20;;;;;;;22.39;55.13;100635.25;5111114;27;20398;-67
2021/06/06 04:37:03;;;;;;;7.07;3.15;;;;;;;22.41;55.42;100633.28;5125771;27;20035;-67
2021/06/06 04:39:31;;;;;;;15.77;4.05;;;;;;;22.42;55.11;100634.97;5118593;27;20051;-67
2021/06/06 04:42:01;;;;;;;12.15;3.85;;;;;;;22.40;55.54;100636.94;5118908;27;20393;-68
2021/06/06 04:44:28;;;;;;;12.80;4.28;;;;;;;22.39;55.83;100639.75;5126555;27;20092;-68
2021/06/06 04:46:57;;;;;;;10.90;4.28;;;;;;;22.45;55.51;100634.69;5118861;27;20088;-67
2021/06/06 04:49:26;;;;;;;12.32;3.85;;;;;;;22.55;55.60;100634.66;5135045;27;20054;-67
2021/06/06 04:51:53;;;;;;;13.40;3.47;;;;;;;22.60;55.72;100631.56;5135236;27;20122;-68
2021/06/06 04:54:30;;;;;;;10.60;3.30;;;;;;;22.62;55.50;100633.09;5135350;27;20423;-69
2021/06/06 04:56:57;;;;;;;13.70;4.60;;;;;;;22.58;56.02;100631.69;5123930;27;20047;-68
2021/06/06 04:59:35;;;;;;;;;;;;;;;22.63;55.81;100640.06;5134973;27;20069;-68
2021/06/06 05:02:09;;;;;;;9.10;4.93;;;;;;;22.61;56.31;100635.91;5122266;27;19925;-69
2021/06/06 05:04:43;;;;;;;16.27;5.28;;;;;;;22.68;55.94;100639.63;5134406;27;20047;-68
2021/06/06 05:07:11;;;;;;;15.35;6.60;;;;;;;22.70;55.97;100638.53;5134979;27;20069;-68
2021/06/06 05:09:41;;;;;;;12.15;5.93;;;;;;;22.74;56.09;100639.91;5131385;27;20062;-68
2021/06/06 05:12:11;;;;;;;12.43;7.32;;;;;;;22.73;56.96;100642.69;5115561;27;20501;-68
2021/06/06 05:14:39;;;;;;;10.43;5.55;;;;;;;22.79;56.60;100636.78;5126753;27;20126;-68
2021/06/06 05:17:08;;;;;;;18.25;6.47;;;;;;;22.79;56.57;100638.63;5135969;27;20046;-68
2021/06/06 05:19:44;;;;;;;14.27;8.32;;;;;;;22.63;57.37;100642.72;5134571;27;20051;-69
2021/06/06 05:22:16;;;;;;;18.92;8.77;;;;;;;22.57;57.77;100647.78;5133774;27;20051;-68
2021/06/06 05:24:43;;;;;;;20.70;9.38;;;;;;;22.61;57.93;100649.19;5136025;27;20097;-68
2021/06/06 05:27:11;;;;;;;17.60;9.30;;;;;;;22.73;57.40;100643.53;5134215;27;20080;-68
2021/06/06 05:29:38;;;;;;;24.15;10.50;;;;;;;22.78;57.37;100644.94;5125657;27;20496;-70
2021/06/06 05:32:06;;;;;;;13.88;10.30;;;;;;;22.76;57.61;100645.09;5115304;27;20401;-68
2021/06/06 05:34:33;;;;;;;16.80;9.88;;;;;;;22.75;57.76;100641.59;5117081;27;20048;-69
2021/06/06 05:37:00;;;;;;;14.05;10.40;;;;;;;22.79;57.51;100638.63;5115985;27;20470;-68
2021/06/06 05:39:27;;;;;;;16.83;9.10;;;;;;;22.89;57.30;100636.78;5109443;27;20126;-68
2021/06/06 05:41:54;;;;;;;17.88;10.10;;;;;;;22.96;56.88;100644.06;5115157;27;20115;-68
2021/06/06 05:44:22;;;;;;;16.30;9.27;;;;;;;23.05;56.84;100642.31;5110797;28;20086;-68
2021/06/06 05:46:49;;;;;;;16.40;9.98;;;;;;;23.07;57.08;100644.84;5112414;27;20451;-68
2021/06/06 05:49:16;;;;;;;13.45;9.32;;;;;;;22.95;57.11;100637.03;5113253;27;20097;-69
2021/06/06 05:51:43;;;;;;;14.80;10.27;;;;;;;23.06;57.20;100649.31;5117261;27;20118;-68
2021/06/06 05:54:12;;;;;;;16.05;11.30;;;;;;;23.21;56.59;100642.50;5115841;27;20513;-68
2021/06/06 05:56:39;;;;;;;14.20;10.80;;;;;;;23.16;56.58;100643.94;5114434;27;20127;-68
2021/06/06 05:59:06;;;;;;;17.23;11.48;;;;;;;23.19;56.22;100633.00;5111421;27;20386;-69
2021/06/06 06:01:33;;;;;;;17.95;12.13;;;;;;;23.35;56.27;100638.50;5115387;27;20494;-69
2021/06/06 06:04:00;;;;;;;18.48;10.95;;;;;;;23.65;55.33;100642.69;5117407;27;20389;-69
2021/06/06 06:06:27;;;;;;;18.00;10.98;;;;;;;23.62;55.59;100642.13;5114075;27;20063;-70
2021/06/06 06:08:55;;;;;;;16.70;10.13;;;;;;;23.89;54.66;100636.75;5116037;27;20043;-68
2021/06/06 06:11:22;;;;;;;15.45;9.10;;;;;;;24.15;54.39;100635.97;5118021;27;20107;-68
2021/06/06 06:13:52;;;;;;;20.27;10.98;;;;;;;24.22;53.52;100642.31;5106570;27;20509;-68
2021/06/06 06:16:29;;;;;;;19.40;11.30;;;;;;;24.24;53.81;100643.03;5115702;27;20040;-66
2021/06/06 06:18:57;;;;;;;17.70;11.13;;;;;;;24.08;54.45;100640.25;5115221;27;20063;-68
2021/06/06 06:21:27;;;;;;;10.88;9.75;;;;;;;24.43;53.70;100639.34;5118238;27;20444;-67
2021/06/06 06:23:53;;;;;;;13.18;10.48;;;;;;;24.65;52.84;100638.81;5118012;27;20044;-68
2021/06/06 06:26:21;;;;;;;21.88;10.45;;;;;;;24.82;52.45;100634.38;5115398;27;20059;-66
2021/06/06 06:29:04;;;;;;;14.43;9.77;;;;;;;25.33;51.40;100633.44;5118387;27;20035;-69
2021/06/06 06:31:51;;;;;;;16.27;9.30;;;;;;;26.01;50.41;100634.22;5128383;27;20074;-68
2021/06/06 06:34:29;;;;;;;16.48;9.25;;;;;;;26.60;48.16;100621.47;5115159;27;20053;-67
2021/06/06 06:36:58;;;;;;;16.92;10.27;;;;;;;26.59;47.90;100635.84;5110197;28;20485;-67
2021/06/06 06:39:25;;;;;;;14.68;8.65;;;;;;;26.36;48.19;100633.00;5116684;27;20047;-66
2021/06/06 06:41:52;;;;;;;13.13;8.90;;;;;;;26.36;48.24;100636.50;5113571;28;20388;-67
2021/06/06 06:44:19;;;;;;;18.48;8.82;;;;;;;26.58;47.85;100637.69;5125888;27;20126;-67
2021/06/06 06:46:49;;;;;;;17.55;9.07;;;;;;;26.59;47.40;100636.69;5114798;27;20040;-67
2021/06/06 06:49:17;;;;;;;13.65;7.32;;;;;;;26.63;47.26;100637.16;5112996;27;20040;-66
2021/06/06 06:51:44;;;;;;;12.25;8.20;;;;;;;26.50;47.40;100636.88;5116272;27;20039;-67
2021/06/06 06:54:11;;;;;;;12.13;7.63;;;;;;;26.72;46.80;100630.78;5116055;27;20074;-67
2021/06/06 06:56:38;;;;;;;13.00;7.38;;;;;;;27.09;46.20;100638.19;5115471;27;20135;-66
2021/06/06 06:59:05;;;;;;;13.95;8.20;;;;;;;27.15;45.96;100634.81;5117877;27;20070;-66
2021/06/06 07:01:32;;;;;;;15.27;7.75;;;;;;;27.08;46.10;100635.69;5119241;27;20485;-68
2021/06/06 07:04:00;;;;;;;12.85;7.07;;;;;;;27.22;45.87;100634.97;5116732;27;20040;-68
2021/06/06 07:06:26;;;;;;;15.95;7.85;;;;;;;27.59;45.52;100638.75;5114249;27;20168;-69
2021/06/06 07:08:53;;;;;;;13.27;7.75;;;;;;;27.83;44.40;100640.44;5114033;27;20389;-69
2021/06/06 07:11:22;;;;;;;13.70;7.68;;;;;;;27.56;44.48;100639.13;5113503;27;20390;-66
2021/06/06 07:13:50;;;;;;;15.05;7.70;;;;;;;27.38;45.07;100628.69;5115880;27;20059;-68
2021/06/06 07:16:19;;;;;;;14.80;7.05;;;;;;;27.64;45.06;100626.47;5113717;27;20067;-69
2021/06/06 07:18:47;;;;;;;14.50;8.05;;;;;;;27.74;44.73;100626.28;5116712;27;20047;-71
2021/06/06 07:21:22;;;;;;;16.15;6.53;;;;;;;27.74;44.48;100625.44;5115700;27;20122;-70
2021/06/06 07:23:51;;;;;;;18.23;5.65;;;;;;;27.94;43.59;100624.78;5115090;27;20092;-68
2021/06/06 07:26:28;;;;;;;21.02;5.88;;;;;;;28.08;43.61;100623.16;5115588;27;20071;-70
2021/06/06 07:28:57;;;;;;;10.85;5.68;;;;;;;28.63;42.27;100621.13;5116732;27;20040;-68
2021/06/06 07:31:24;;;;;;;13.23;6.00;;;;;;;28.92;41.83;100612.19;5113434;28;20101;-70
2021/06/06 07:34:11;;;;;;;13.10;7.63;;;;;;;27.98;42.82;100617.22;5115941;27;20075;-75
2021/06/06 07:36:39;;;;;;;17.33;6.97;;;;;;;27.87;43.73;100629.19;5125147;27;20067;-71
2021/06/06 07:39:06;;;;;;;15.50;7.20;;;;;;;28.37;42.95;100621.56;5113413;28;20127;-67
2021/06/06 07:41:33;;;;;;;16.95;7.00;;;;;;;29.39;41.33;100622.50;5124488;27;20044;-72
2021/06/06 07:44:00;;;;;;;14.93;5.80;;;;;;;29.15;40.14;100617.50;5113099;27;20517;-76
2021/06/06 07:46:27;;;;;;;15.27;4.82;;;;;;;29.43;40.91;100625.63;5114882;27;20027;-70
2021/06/06 07:48:55;;;;;;;9.38;5.30;;;;;;;29.08;40.93;100619.25;5114142;28;20436;-70
2021/06/06 07:51:22;;;;;;;8.48;4.45;;;;;;;29.32;39.78;100620.78;5114889;27;20114;-69
2021/06/06 07:53:51;;;;;;;10.35;4.63;;;;;;;28.96;40.04;100613.53;5118500;27;20047;-71
2021/06/06 07:56:18;;;;;;;14.07;5.53;;;;;;;28.43;41.13;100616.28;5116699;27;20114;-73
2021/06/06 07:58:45;;;;;;;13.60;5.88;;;;;;;28.43;41.61;100612.78;5113131;28;20067;-70
2021/06/06 08:01:12;;;;;;;7.82;5.82;;;;;;;28.92;40.98;100612.19;5113592;28;20040;-73
2021/06/06 08:03:39;;;;;;;6.45;4.18;;;;;;;30.32;38.71;100611.81;5112383;28;20126;-67
2021/06/06 08:06:08;;;;;;;9.77;5.65;;;;;;;30.45;38.02;100610.00;5113245;28;20073;-68
2021/06/06 08:08:36;;;;;;;12.50;5.95;;;;;;;30.05;38.09;100616.13;5112661;28;20043;-67
2021/06/06 08:11:04;;;;;;;10.18;5.07;;;;;;;30.48;38.47;100619.56;5113076;28;20146;-74
2021/06/06 08:13:31;;;;;;;13.73;6.30;;;;;;;30.71;36.75;100614.75;5131278;28;20040;-73
2021/06/06 08:15:59;;;;;;;13.18;5.20;;;;;;;29.94;38.24;100614.81;5116748;27;20050;-71
2021/06/06 08:18:32;;;;;;;13.43;4.90;;;;;;;29.58;39.01;100615.72;5112841;28;20032;-73
2021/06/06 08:21:09;;;;;;;10.70;5.43;;;;;;;29.56;39.37;100615.03;5112780;28;20118;-74
2021/06/06 08:23:37;;;;;;;10.95;5.05;;;;;;;29.62;38.95;100617.00;5117462;28;20130;-66
2021/06/06 08:26:06;;;;;;;15.15;7.35;;;;;;;29.13;40.13;100614.97;5112640;28;20031;-66
2021/06/06 08:28:33;;;;;;;14.90;6.78;;;;;;;29.12;40.23;100617.84;5112954;28;20367;-70
2021/06/06 08:31:05;;;;;;;12.77;8.38;;;;;;;28.50;41.23;100611.06;5119277;28;20040;-75
2021/06/06 08:33:33;;;;;;;16.02;7.68;;;;;;;28.06;42.13;100611.78;5113189;28;20464;-70
2021/06/06 08:36:16;;;;;;;20.67;6.82;;;;;;;28.45;42.31;100614.28;5126687;28;20469;-71
2021/06/06 08:38:43;;;;;;;9.48;7.65;;;;;;;28.11;43.04;100617.41;5113051;28;20131;-75
2021/06/06 08:41:20;;;;;;;15.32;9.68;;;;;;;27.77;44.57;100609.88;5112609;28;20398;-71
2021/06/06 08:43:58;;;;;;;15.07;9.32;;;;;;;28.03;42.90;100609.47;5118378;28;20122;-72
2021/06/06 08:46:26;;;;;;;14.45;7.43;;;;;;;28.50;41.64;100607.50;5113241;27;20119;-72
2021/06/06 08:48:56;;;;;;;17.58;11.73;;;;;;;28.33;42.27;100605.00;5111041;28;20042;-71
2021/06/06 08:51:45;;;;;;;16.30;7.60;;;;;;;28.11;43.31;100606.69;5115957;28;20126;-70
2021/06/06 08:54:21;;;;;;;18.35;8.57;;;;;;;27.38;44.34;100615.31;5111145;28;20040;-71
2021/06/06 08:56:56;;;;;;;13.55;5.32;;;;;;;26.77;46.36;100612.38;5114852;27;20717;-71
2021/06/06 08:59:32;;;;;;;10.25;5.85;;;;;;;26.49;46.51;100620.00;5121101;27;20067;-68
2021/06/06 09:02:20;;;;;;;8.93;6.75;;;;;;;25.26;48.48;100619.09;5116782;27;20428;-66
2021/06/06 09:04:49;;;;;;;8.60;5.80;;;;;;;25.89;48.51;100614.19;5119319;27;20383;-69
2021/06/06 09:07:42;;;;;;;16.17;7.10;;;;;;;26.18;46.81;100616.34;5117613;27;20130;-72
2021/06/06 09:10:13;;;;;;;10.93;5.60;;;;;;;26.71;46.19;100607.72;5117266;27;20100;-75
2021/06/06 09:12:41;;;;;;;12.75;7.35;;;;;;;26.61;45.83;100604.44;5119323;27;20097;-71
2021/06/06 09:15:11;;;;;;;17.20;6.68;;;;;;;26.94;44.53;100605.13;5119591;27;20118;-71
2021/06/06 09:17:49;;;;;;;12.10;6.22;;;;;;;27.25;44.54;100598.97;5119235;27;20071;-71
2021/06/06 09:20:39;;;;;;;13.13;6.68;;;;;;;27.06;44.71;100601.06;5116806;27;20039;-70
2021/06/06 09:23:16;;;;;;;17.38;6.35;;;;;;;27.12;44.63;100605.75;5120449;27;20158;-70
2021/06/06 09:25:46;;;;;;;12.52;6.55;;;;;;;27.06;45.42;100610.91;5118004;27;20074;-71
2021/06/06 09:28:21;;;;;;;11.13;6.38;;;;;;;26.99;44.02;100602.75;5115695;27;20444;-71
2021/06/06 09:31:03;;;;;;;11.20;6.20;;;;;;;27.08;44.21;100603.59;5116830;27;20131;-71
2021/06/06 09:33:36;;;;;;;9.23;5.80;;;;;;;27.31;43.30;100603.63;5119453;27;20549;-70
2021/06/06 09:36:25;;;;;;;14.85;6.80;;;;;;;27.39;43.66;100600.91;5117347;27;20051;-71
2021/06/06 09:39:01;;;;;;;11.85;5.57;;;;;;;27.57;43.22;100601.44;5118577;27;20126;-81
2021/06/06 09:41:40;;;;;;;7.68;5.05;;;;;;;27.51;43.44;100593.28;5115143;27;20323;-82
2021/06/06 09:44:14;;;;;;;9.70;4.63;;;;;;;27.23;43.26;100590.31;5121425;27;20063;-82
2021/06/06 09:46:42;;;;;;;18.13;6.18;;;;;;;27.20;44.45;100590.66;5113549;27;20067;-83
2021/06/06 09:49:34;;;;;;;12.23;6.38;;;;;;;27.33;43.88;100585.56;5114930;27;20112;-78
2021/06/06 09:52:42;;;;;;;13.55;6.35;;;;;;;27.46;44.36;100583.13;5113658;27;20054;-77
2021/06/06 09:55:15;;;;;;;13.27;5.35;;;;;;;27.37;44.04;100581.50;5112427;27;20084;-81
2021/06/06 09:57:43;;;;;;;10.93;5.63;;;;;;;27.61;43.94;100584.00;5111655;27;20132;-80
2021/06/06 10:00:19;;;;;;;19.58;6.70;;;;;;;27.48;43.52;100573.03;5113260;27;20043;-80
2021/06/06 10:03:06;;;;;;;7.13;5.22;;;;;;;27.67;43.60;100567.22;5111109;27;20517;-79
2021/06/06 10:05:41;;;;;;;11.63;5.32;;;;;;;27.61;44.75;100567.94;5112906;27;20046;-75
2021/06/06 10:08:27;;;;;;;8.00;5.43;;;;;;;27.25;44.77;100564.19;5118490;27;20068;-85
2021/06/06 10:11:08;;;;;;;8.48;5.57;;;;;;;26.75;44.56;100565.44;5113858;27;20387;-84
2021/06/06 10:13:37;;;;;;;12.85;4.88;;;;;;;27.06;44.54;100552.91;5111732;27;20412;-84
2021/06/06 10:16:14;;;;;;;13.38;5.55;;;;;;;27.28;43.66;100545.13;5113037;27;20032;-85
2021/06/06 10:18:47;;;;;;;10.98;5.35;;;;;;;27.46;44.46;100548.31;5112161;27;20493;-85
2021/06/06 10:21:23;;;;;;;12.73;4.97;;;;;;;27.64;43.16;100540.78;5109351;27;20123;-82
2021/06/06 10:23:57;;;;;;;10.23;4.45;;;;;;;27.86;43.84;100533.78;5112214;27;20092;-85
2021/06/06 10:26:31;;;;;;;;;;;;;;;27.78;43.62;100535.69;5112928;27;20119;-83
2021/06/06 10:29:06;;;;;;;7.72;4.82;;;;;;;27.63;43.70;100539.13;5112940;27;20018;-83
2021/06/06 10:31:37;;;;;;;8.70;4.53;;;;;;;27.25;44.09;100534.75;5114150;27;20035;-79
2021/06/06 10:34:16;;;;;;;11.80;4.25;;;;;;;27.12;43.86;100536.19;5112656;27;20032;-78
2021/06/06 10:36:43;;;;;;;13.82;4.63;;;;;;;27.26;44.10;100545.25;5111080;27;20036;-85
2021/06/06 10:39:25;;;;;;;11.05;4.22;;;;;;;27.23;44.37;100537.63;5127103;27;20401;-84
2021/06/06 10:42:02;;;;;;;10.82;5.28;;;;;;;27.39;43.51;100534.81;5114047;27;20059;-84
2021/06/06 10:44:59;;;;;;;10.98;5.68;;;;;;;27.44;43.73;100530.78;5108372;27;20440;-84
2021/06/06 10:47:52;;;;;;;10.55;5.45;;;;;;;27.45;43.67;100532.44;5112900;27;20048;-69
2021/06/06 10:50:22;;;;;;;13.48;4.53;;;;;;;27.12;43.82;100536.19;5107632;27;20048;-78
2021/06/06 10:52:52;;;;;;;7.93;5.35;;;;;;;27.15;43.14;100530.44;5121316;27;20456;-76
2021/06/06 10:55:30;;;;;;;12.45;5.07;;;;;;;27.40;43.18;100527.63;5118729;27;20040;-77
2021/06/06 10:58:10;;;;;;;8.50;4.38;;;;;;;27.38;43.80;100529.66;5113954;27;20031;-78
2021/06/06 11:00:41;;;;;;;8.93;4.38;;;;;;;27.29;43.43;100528.03;5120027;27;20083;-74
2021/06/06 11:03:12;;;;;;;24.38;5.95;;;;;;;27.37;43.44;100518.09;5112022;28;20510;-73
2021/06/06 11:05:45;;;;;;;13.60;5.13;;;;;;;27.39;43.30;100515.25;5113711;27;20046;-74
2021/06/06 11:08:17;;;;;;;8.80;4.45;;;;;;;27.04;44.27;100519.31;5112529;27;20131;-71
2021/06/06 11:10:50;;;;;;;13.50;4.75;;;;;;;27.11;44.65;100510.44;5108208;27;20508;-77
2021/06/06 11:13:44;;;;;;;10.98;4.45;;;;;;;27.28;43.72;100507.66;5116993;27;20493;-70
2021/06/06 11:16:17;;;;;;;8.82;4.10;;;;;;;27.25;44.03;100507.97;5113657;27;20051;-80
2021/06/06 11:18:50;;;;;;;10.60;6.90;;;;;;;27.42;43.89;100506.84;5111151;27;20043;-80
2021/06/06 11:21:40;;;;;;;13.63;5.07;;;;;;;27.50;43.76;100496.06;5109235;27;20054;-80
2021/06/06 11:24:27;;;;;;;15.60;5.88;;;;;;;27.18;44.68;100502.53;5110716;27;20096;-80
2021/06/06 11:27:03;;;;;;;9.98;5.63;;;;;;;27.31;44.71;100496.56;5113571;27;20035;-82
2021/06/06 11:29:51;;;;;;;11.95;5.90;;;;;;;27.13;45.49;100497.69;5106220;28;20039;-81
2021/06/06 11:32:30;;;;;;;13.93;5.70;;;;;;;27.27;45.18;100495.25;5112918;27;20085;-81
2021/06/06 11:35:15;;;;;;;8.85;5.57;;;;;;;27.05;45.40;100484.34;5113494;27;20126;-70
2021/06/06 11:37:45;;;;;;;15.25;5.85;;;;;;;27.34;44.58;100480.16;5113642;27;20082;-70
2021/06/06 11:40:18;;;;;;;13.38;4.65;;;;;;;27.38;44.79;100476.94;5113159;27;20048;-74
2021/06/06 11:42:45;;;;;;;7.97;5.03;;;;;;;27.62;45.15;100473.19;5114563;27;20035;-74
2021/06/06 11:45:18;;;;;;;12.45;4.53;;;;;;;27.61;44.19;100471.53;5114475;27;20051;-75
2021/06/06 11:47:52;;;;;;;13.32;6.47;;;;;;;27.60;44.22;100475.25;5113752;27;20040;-73